GCXO/TFN METAR and TAF weather

Enter ICAO airport designator
Station Type Date Time Source
GCXO METAR 2019/04/22 16:30 UTC NOAA

GCXO 221630Z 29019KT 9999 FEW004 SCT007 16/12 Q1015


Station Type Date Time Source
GCXO Decoded METAR 2019/04/22 16:30 UTC NOAA

Tenerife / Los Rodeos, Spain (GCXO) 28-28N 016-19W 617M
Apr 22, 2019 - 12:30 PM EDT / 2019.04.22 1630 UTC
Wind: from the WNW (290 degrees) at 22 MPH (19 KT):0
Visibility: greater than 7 mile(s):0
Sky conditions: partly cloudy
Temperature: 60 F (16 C)
Dew Point: 53 F (12 C)
Relative Humidity: 77%
Pressure (altimeter): 29.97 in. Hg (1015 hPa)
ob: GCXO 221630Z 29019KT 9999 FEW004 SCT007 16/12 Q1015
cycle: 16

Station Type Date Time Source
GCXO TAF 2019/04/22 15:27 UTC NOAA

TAF GCXO 221400Z 2215/2315 31017KT 9999 BKN016 TX19/2215Z TN11/2305Z PROB40
TEMPO 2219/2309 4500 RA BCFG BKN005

Example: see airport list